createdAt,value
2023-04-27T00:01:06.502Z,9.07
2023-04-27T00:03:39.970Z,9.85
2023-04-27T00:06:12.290Z,8.18
2023-04-27T00:08:45.230Z,6.30
2023-04-27T00:11:17.148Z,7.90
2023-04-27T00:13:49.612Z,7.75
2023-04-27T00:16:21.611Z,6.65
2023-04-27T00:18:54.233Z,9.52
2023-04-27T00:21:27.003Z,7.22
2023-04-27T00:23:59.421Z,7.88
2023-04-27T00:26:31.769Z,9.40
2023-04-27T00:29:05.152Z,7.05
2023-04-27T00:31:37.134Z,9.57
2023-04-27T00:34:09.966Z,7.28
2023-04-27T00:36:41.950Z,7.25
2023-04-27T00:39:14.668Z,7.80
2023-04-27T00:41:46.793Z,7.13
2023-04-27T00:44:26.489Z,8.23
2023-04-27T00:46:58.949Z,7.60
2023-04-27T00:49:31.797Z,6.88
2023-04-27T00:52:04.141Z,10.73
2023-04-27T00:54:36.589Z,9.90
2023-04-27T00:57:09.054Z,8.68
2023-04-27T00:59:41.630Z,8.00
2023-04-27T01:02:14.086Z,7.95
2023-04-27T01:04:46.557Z,7.65
2023-04-27T01:07:18.896Z,9.85
2023-04-27T01:09:51.521Z,9.93
2023-04-27T01:12:23.526Z,7.80
2023-04-27T01:14:56.454Z,8.15
2023-04-27T01:17:28.399Z,7.15
2023-04-27T01:20:02.649Z,8.77
2023-04-27T01:22:34.598Z,7.03
2023-04-27T01:25:08.332Z,6.70
2023-04-27T01:27:40.653Z,11.10
2023-04-27T01:30:13.703Z,7.30
2023-04-27T01:32:46.158Z,8.82
2023-04-27T01:35:18.676Z,9.85
2023-04-27T01:37:51.408Z,8.05
2023-04-27T01:40:23.637Z,8.98
2023-04-27T01:42:56.090Z,7.45
2023-04-27T01:45:28.507Z,8.93
2023-04-27T01:48:01.271Z,9.10
2023-04-27T01:50:34.186Z,8.43
2023-04-27T01:53:06.151Z,9.10
2023-04-27T01:55:38.879Z,8.25
2023-04-27T01:58:10.820Z,9.43
2023-04-27T02:00:45.815Z,8.10
2023-04-27T02:03:18.200Z,7.82
2023-04-27T02:05:50.795Z,8.73
2023-04-27T02:08:24.829Z,11.57
2023-04-27T02:10:58.017Z,10.20
2023-04-27T02:13:29.882Z,7.80
2023-04-27T02:16:04.641Z,7.85
2023-04-27T02:18:37.034Z,8.43
2023-04-27T02:21:15.065Z,7.72
2023-04-27T02:23:47.762Z,7.63
2023-04-27T02:26:22.489Z,7.22
2023-04-27T02:28:54.814Z,8.65
2023-04-27T02:31:27.963Z,8.35
2023-04-27T02:33:59.883Z,7.00
2023-04-27T02:36:32.763Z,10.70
2023-04-27T02:39:05.640Z,6.45
2023-04-27T02:41:37.664Z,8.93
2023-04-27T02:44:11.057Z,8.30
2023-04-27T02:46:43.001Z,9.68
2023-04-27T02:49:17.147Z,7.72
2023-04-27T02:51:49.052Z,9.05
2023-04-27T02:54:22.565Z,8.48
2023-04-27T02:56:55.036Z,8.00
2023-04-27T02:59:48.698Z,9.05
2023-04-27T03:02:21.215Z,13.57
2023-04-27T03:04:54.916Z,10.38
2023-04-27T03:07:27.672Z,7.97
2023-04-27T03:10:18.417Z,8.15
2023-04-27T03:12:51.376Z,8.65
2023-04-27T03:15:23.243Z,7.68
2023-04-27T03:17:56.394Z,8.90
2023-04-27T03:20:28.778Z,8.25
2023-04-27T03:23:01.756Z,9.30
2023-04-27T03:25:34.528Z,9.32
2023-04-27T03:28:06.670Z,7.30
2023-04-27T03:30:41.621Z,6.57
2023-04-27T03:33:14.643Z,8.75
2023-04-27T03:35:56.539Z,8.70
2023-04-27T03:38:29.062Z,7.70
2023-04-27T03:41:01.965Z,8.05
2023-04-27T03:43:34.297Z,8.18
2023-04-27T03:46:08.973Z,7.63
2023-04-27T03:48:43.895Z,7.28
2023-04-27T03:51:16.728Z,8.13
2023-04-27T03:53:50.988Z,8.10
2023-04-27T03:56:24.182Z,8.13
2023-04-27T03:58:56.849Z,7.72
2023-04-27T04:01:37.846Z,10.05
2023-04-27T04:04:10.366Z,10.57
2023-04-27T04:06:42.813Z,8.65
2023-04-27T04:09:17.130Z,8.00
2023-04-27T04:11:49.877Z,7.70
2023-04-27T04:14:22.537Z,7.75
2023-04-27T04:16:55.694Z,8.00
2023-04-27T04:19:28.021Z,7.72
2023-04-27T04:22:00.429Z,7.32
2023-04-27T04:24:32.353Z,8.50
2023-04-27T04:27:06.193Z,9.50
2023-04-27T04:29:39.865Z,8.95
2023-04-27T04:32:17.980Z,8.02
2023-04-27T04:34:53.072Z,8.50
2023-04-27T04:37:27.703Z,9.70
2023-04-27T04:40:00.174Z,7.95
2023-04-27T04:42:37.630Z,8.80
2023-04-27T04:45:10.874Z,8.15
2023-04-27T04:48:03.127Z,9.13
2023-04-27T04:50:35.060Z,8.25
2023-04-27T04:53:08.126Z,8.43
2023-04-27T04:55:40.990Z,8.80
2023-04-27T04:58:15.996Z,7.82
2023-04-27T05:00:48.285Z,9.52
2023-04-27T05:03:21.730Z,12.77
2023-04-27T05:05:53.794Z,9.32
2023-04-27T05:08:27.501Z,8.80
2023-04-27T05:10:59.815Z,9.18
2023-04-27T05:13:32.732Z,9.48
2023-04-27T05:16:08.466Z,10.40
2023-04-27T05:18:42.159Z,8.38
2023-04-27T05:21:20.683Z,8.25
2023-04-27T05:23:53.481Z,8.27
2023-04-27T05:26:25.379Z,7.40
2023-04-27T05:28:58.112Z,10.63
2023-04-27T05:31:30.102Z,9.50
2023-04-27T05:34:03.139Z,9.32
2023-04-27T05:36:36.001Z,8.68
2023-04-27T05:39:10.464Z,8.23
2023-04-27T05:41:42.439Z,10.18
2023-04-27T05:44:16.216Z,7.82
2023-04-27T05:46:48.082Z,8.85
2023-04-27T05:49:21.094Z,11.13
2023-04-27T05:51:53.573Z,9.15
2023-04-27T05:54:28.193Z,9.10
2023-04-27T05:57:00.146Z,8.20
2023-04-27T06:02:26.777Z,11.55
2023-04-27T06:04:59.653Z,9.18
2023-04-27T06:07:34.683Z,12.73
2023-04-27T06:10:08.245Z,8.57
2023-04-27T06:12:40.816Z,9.52
2023-04-27T06:15:13.805Z,10.30
2023-04-27T06:17:46.959Z,9.40
2023-04-27T06:20:19.430Z,12.85
2023-04-27T06:22:53.920Z,10.52
2023-04-27T06:25:29.372Z,9.38
2023-04-27T06:30:56.025Z,9.10
2023-04-27T06:33:28.786Z,8.52
2023-04-27T06:36:02.720Z,11.02
2023-04-27T06:38:34.695Z,11.90
2023-04-27T06:41:08.518Z,10.57
2023-04-27T06:43:40.482Z,8.10
2023-04-27T06:46:15.354Z,7.93
2023-04-27T06:48:48.845Z,11.65
2023-04-27T06:51:21.272Z,8.15
2023-04-27T06:53:56.663Z,9.95
2023-04-27T06:56:29.004Z,9.95
2023-04-27T06:59:03.571Z,9.35
2023-04-27T07:01:36.367Z,11.30
2023-04-27T07:04:10.523Z,9.23
2023-04-27T07:06:45.533Z,15.25
2023-04-27T07:09:26.888Z,10.63
2023-04-27T07:12:02.995Z,8.23
2023-04-27T07:14:55.055Z,9.23
2023-04-27T07:17:27.038Z,10.70
2023-04-27T07:20:02.347Z,10.20
2023-04-27T07:22:34.679Z,8.98
2023-04-27T07:25:09.864Z,9.73
2023-04-27T07:27:41.772Z,9.18
2023-04-27T07:30:16.796Z,9.52
2023-04-27T07:32:54.270Z,11.07
2023-04-27T07:35:27.839Z,10.00
2023-04-27T07:38:02.696Z,8.23
2023-04-27T07:40:36.984Z,10.52
2023-04-27T07:43:09.498Z,8.75
2023-04-27T07:45:43.785Z,9.55
2023-04-27T07:48:16.171Z,8.52
2023-04-27T07:50:49.240Z,9.90
2023-04-27T07:53:21.390Z,10.40
2023-04-27T07:55:54.376Z,11.95
2023-04-27T08:01:21.605Z,9.45
2023-04-27T08:03:56.683Z,8.33
2023-04-27T08:06:29.872Z,10.75
2023-04-27T08:09:05.038Z,16.73
2023-04-27T08:11:37.936Z,9.95
2023-04-27T08:14:13.571Z,10.02
2023-04-27T08:16:46.593Z,8.27
2023-04-27T08:19:18.792Z,11.88
2023-04-27T08:21:52.472Z,9.18
2023-04-27T08:24:24.941Z,10.52
2023-04-27T08:26:58.365Z,9.38
2023-04-27T08:29:30.642Z,13.37
2023-04-27T08:32:25.343Z,10.10
2023-04-27T08:34:57.320Z,10.93
2023-04-27T08:37:31.414Z,12.98
2023-04-27T08:40:07.451Z,9.82
2023-04-27T08:42:43.425Z,11.50
2023-04-27T08:45:15.750Z,10.88
2023-04-27T08:47:52.886Z,11.90
2023-04-27T08:50:25.713Z,10.43
2023-04-27T08:53:24.297Z,10.48
2023-04-27T08:55:57.768Z,10.37
2023-04-27T08:58:38.694Z,11.55
2023-04-27T09:01:10.803Z,11.75
2023-04-27T09:03:47.260Z,8.40
2023-04-27T09:06:31.816Z,11.50
2023-04-27T09:09:26.550Z,10.47
2023-04-27T09:11:58.713Z,10.73
2023-04-27T09:14:35.962Z,10.00
2023-04-27T09:17:07.963Z,8.02
2023-04-27T09:20:13.911Z,7.75
2023-04-27T09:22:48.881Z,10.50
2023-04-27T09:28:51.863Z,7.53
2023-04-27T09:31:37.505Z,8.57
2023-04-27T09:34:11.972Z,8.10
2023-04-27T09:37:06.050Z,13.00
2023-04-27T09:39:39.422Z,6.15
2023-04-27T09:42:13.069Z,6.68
2023-04-27T09:44:46.326Z,6.50
2023-04-27T09:47:18.744Z,10.18
2023-04-27T09:49:52.514Z,7.90
2023-04-27T09:52:42.857Z,9.15
2023-04-27T09:55:33.571Z,8.20
2023-04-27T09:58:37.686Z,6.93
2023-04-27T10:01:27.398Z,8.90
2023-04-27T10:04:47.015Z,7.43
2023-04-27T10:07:19.549Z,4.55
2023-04-27T10:09:52.810Z,5.70
2023-04-27T10:12:34.607Z,10.95
2023-04-27T10:15:18.093Z,8.55
2023-04-27T10:17:58.734Z,8.27
2023-04-27T10:20:33.391Z,6.65
2023-04-27T10:23:06.341Z,6.53
2023-04-27T10:25:42.100Z,6.10
2023-04-27T10:28:23.472Z,9.73
2023-04-27T10:30:58.217Z,5.90
2023-04-27T10:33:30.303Z,5.53
2023-04-27T10:36:05.108Z,6.40
2023-04-27T10:38:42.450Z,6.65
2023-04-27T10:41:15.095Z,8.68
2023-04-27T10:43:48.944Z,8.17
2023-04-27T10:46:21.335Z,5.57
2023-04-27T10:48:54.171Z,5.13
2023-04-27T10:51:27.104Z,6.13
2023-04-27T10:54:02.849Z,12.00
2023-04-27T10:59:28.161Z,7.60
2023-04-27T11:02:02.570Z,7.38
2023-04-27T11:04:40.289Z,5.35
2023-04-27T11:07:28.078Z,5.82
2023-04-27T11:10:00.184Z,4.57
2023-04-27T11:12:33.405Z,7.05
2023-04-27T11:15:23.973Z,5.20
2023-04-27T11:18:06.372Z,5.95
2023-04-27T11:20:38.778Z,7.75
2023-04-27T11:23:11.212Z,6.90
2023-04-27T11:25:45.480Z,5.35
2023-04-27T11:28:21.932Z,6.40
2023-04-27T11:31:01.780Z,5.50
2023-04-27T11:33:35.823Z,4.70
2023-04-27T11:36:23.907Z,6.40
2023-04-27T11:39:00.050Z,7.15
2023-04-27T11:41:37.946Z,5.22
2023-04-27T11:44:11.305Z,5.25
2023-04-27T11:46:48.860Z,4.93
2023-04-27T11:49:20.907Z,7.93
2023-04-27T11:51:55.503Z,6.90
2023-04-27T11:54:29.760Z,5.88
2023-04-27T11:57:07.016Z,6.55
2023-04-27T11:59:38.981Z,4.95
2023-04-27T12:02:33.580Z,10.23
2023-04-27T12:05:07.498Z,4.90
2023-04-27T12:07:41.780Z,6.30
2023-04-27T12:10:14.370Z,5.47
2023-04-27T12:12:50.254Z,5.45
2023-04-27T12:15:22.596Z,6.17
2023-04-27T12:17:56.681Z,5.80
2023-04-27T12:20:29.441Z,8.13
2023-04-27T12:23:02.420Z,6.47
2023-04-27T12:25:37.663Z,5.22
2023-04-27T12:28:10.404Z,5.70
2023-04-27T12:33:37.232Z,8.20
2023-04-27T12:36:11.195Z,5.05
2023-04-27T12:38:43.815Z,4.88
2023-04-27T12:41:16.525Z,6.60
2023-04-27T12:43:49.405Z,4.68
2023-04-27T12:46:21.966Z,5.65
2023-04-27T12:48:56.971Z,4.53
2023-04-27T12:51:53.284Z,4.53
2023-04-27T12:54:26.250Z,3.73
2023-04-27T12:56:58.324Z,3.92
2023-04-27T12:59:31.659Z,4.28
2023-04-27T13:02:07.870Z,4.00
2023-04-27T13:04:41.489Z,7.55
2023-04-27T13:07:17.844Z,5.03
2023-04-27T13:09:50.161Z,6.15
2023-04-27T13:12:25.069Z,4.63
2023-04-27T13:14:57.328Z,4.70
2023-04-27T13:17:53.301Z,4.30
2023-04-27T13:23:18.875Z,4.05
2023-04-27T13:25:51.758Z,5.03
2023-04-27T13:28:24.149Z,4.45
2023-04-27T13:30:57.382Z,5.07
2023-04-27T13:33:32.295Z,4.33
2023-04-27T13:36:06.562Z,4.18
2023-04-27T13:38:39.383Z,4.45
2023-04-27T13:41:12.424Z,4.13
2023-04-27T13:43:47.743Z,4.10
2023-04-27T13:46:20.511Z,4.10
2023-04-27T13:48:53.775Z,4.30
2023-04-27T13:51:26.687Z,4.30
2023-04-27T13:53:59.818Z,4.28
2023-04-27T13:56:32.204Z,5.20
2023-04-27T13:59:05.659Z,4.63
2023-04-27T14:01:39.445Z,5.05
2023-04-27T14:04:11.923Z,7.13
2023-04-27T14:06:44.127Z,5.35
2023-04-27T14:09:17.150Z,6.15
2023-04-27T14:11:56.270Z,5.43
2023-04-27T14:14:30.372Z,4.90
2023-04-27T14:17:02.680Z,4.88
2023-04-27T14:19:38.980Z,4.38
2023-04-27T14:22:11.427Z,6.15
2023-04-27T14:24:43.954Z,4.27
2023-04-27T14:27:17.072Z,4.43
2023-04-27T14:29:49.567Z,4.50
2023-04-27T14:32:22.554Z,5.10
2023-04-27T14:34:55.011Z,4.53
2023-04-27T14:37:27.366Z,5.07
2023-04-27T14:40:01.290Z,3.83
2023-04-27T14:42:33.246Z,4.32
2023-04-27T14:45:07.073Z,3.90
2023-04-27T14:47:39.523Z,4.57
2023-04-27T14:50:12.074Z,5.13
2023-04-27T14:52:44.954Z,3.70
2023-04-27T14:55:18.425Z,5.18
2023-04-27T14:57:53.284Z,4.95
2023-04-27T15:00:26.228Z,5.88
2023-04-27T15:03:08.333Z,4.27
2023-04-27T15:05:41.751Z,5.45
2023-04-27T15:08:14.122Z,5.68
2023-04-27T15:10:46.114Z,4.63
2023-04-27T15:13:18.462Z,4.90
2023-04-27T15:15:59.460Z,4.43
2023-04-27T15:18:32.455Z,5.88
2023-04-27T15:21:04.565Z,4.93
2023-04-27T15:23:38.638Z,5.78
2023-04-27T15:26:11.044Z,4.55
2023-04-27T15:28:44.527Z,4.57
2023-04-27T15:31:16.584Z,5.07
2023-04-27T15:33:49.438Z,5.25
2023-04-27T15:36:22.956Z,5.03
2023-04-27T15:38:55.412Z,4.85
2023-04-27T15:41:27.632Z,5.17
2023-04-27T15:44:00.875Z,4.82
2023-04-27T15:46:32.984Z,5.43
2023-04-27T15:49:06.542Z,4.32
2023-04-27T15:51:39.536Z,5.85
2023-04-27T15:54:12.290Z,5.20
2023-04-27T15:56:45.552Z,6.78
2023-04-27T15:59:18.148Z,6.53
2023-04-27T16:01:50.952Z,9.15
2023-04-27T16:04:23.225Z,6.05
2023-04-27T16:06:55.655Z,10.10
2023-04-27T16:09:28.204Z,7.82
2023-04-27T16:12:01.910Z,4.38
2023-04-27T16:14:34.207Z,6.15
2023-04-27T16:17:07.221Z,8.73
2023-04-27T16:19:39.544Z,7.33
2023-04-27T16:22:11.778Z,4.20
2023-04-27T16:24:45.111Z,5.53
2023-04-27T16:27:18.083Z,4.97
2023-04-27T16:32:43.491Z,5.10
2023-04-27T16:35:16.698Z,4.07
2023-04-27T16:37:50.186Z,4.97
2023-04-27T16:40:22.992Z,5.07
2023-04-27T16:42:54.889Z,5.30
2023-04-27T16:45:29.430Z,4.00
2023-04-27T16:48:03.424Z,4.95
2023-04-27T16:50:36.463Z,6.90
2023-04-27T16:53:13.492Z,5.60
2023-04-27T16:55:46.434Z,4.88
2023-04-27T16:58:18.888Z,4.63
2023-04-27T17:00:50.920Z,6.28
2023-04-27T17:03:24.194Z,6.22
2023-04-27T17:05:57.059Z,8.02
2023-04-27T17:08:29.073Z,6.20
2023-04-27T17:11:02.459Z,6.27
2023-04-27T17:13:34.362Z,5.05
2023-04-27T17:16:13.712Z,5.90
2023-04-27T17:18:49.064Z,5.28
2023-04-27T17:21:23.137Z,4.35
2023-04-27T17:23:57.812Z,6.33
2023-04-27T17:26:30.723Z,7.05
2023-04-27T17:29:02.610Z,7.85
2023-04-27T17:31:35.745Z,6.47
2023-04-27T17:34:07.684Z,5.28
2023-04-27T17:36:41.110Z,8.53
2023-04-27T17:39:14.704Z,7.97
2023-04-27T17:41:47.358Z,6.68
2023-04-27T17:44:19.739Z,8.27
2023-04-27T17:46:52.230Z,6.57
2023-04-27T17:49:25.597Z,5.90
2023-04-27T17:51:57.522Z,5.55
2023-04-27T17:54:30.379Z,5.85
2023-04-27T17:57:04.202Z,8.55
2023-04-27T17:59:37.265Z,8.60
2023-04-27T18:02:12.177Z,5.27
2023-04-27T18:04:44.318Z,5.28
2023-04-27T18:07:18.901Z,5.40
2023-04-27T18:09:51.457Z,5.57
2023-04-27T18:12:24.205Z,5.25
2023-04-27T18:14:56.202Z,4.80
2023-04-27T18:17:28.862Z,7.95
2023-04-27T18:20:09.614Z,8.27
2023-04-27T18:22:42.658Z,7.30
2023-04-27T18:25:14.613Z,7.78
2023-04-27T18:27:50.079Z,6.57
2023-04-27T18:30:22.916Z,6.15
2023-04-27T18:32:55.971Z,6.18
2023-04-27T18:35:27.938Z,4.88
2023-04-27T18:38:00.651Z,5.68
2023-04-27T18:40:36.018Z,4.70
2023-04-27T18:43:08.913Z,7.05
2023-04-27T18:45:41.260Z,5.30
2023-04-27T18:48:13.865Z,5.85
2023-04-27T18:50:46.928Z,7.15
2023-04-27T18:53:19.545Z,9.23
2023-04-27T18:55:51.499Z,6.68
2023-04-27T18:58:24.379Z,6.53
2023-04-27T19:00:56.797Z,6.55
2023-04-27T19:03:29.536Z,5.60
2023-04-27T19:06:01.572Z,6.77
2023-04-27T19:08:34.365Z,15.70
2023-04-27T19:11:06.284Z,10.23
2023-04-27T19:13:43.271Z,6.50
2023-04-27T19:16:15.473Z,6.18
2023-04-27T19:18:48.045Z,6.37
2023-04-27T19:21:20.016Z,4.90
2023-04-27T19:23:53.003Z,6.85
2023-04-27T19:26:25.424Z,10.00
2023-04-27T19:28:57.737Z,10.18
2023-04-27T19:31:30.326Z,6.30
2023-04-27T19:34:04.453Z,6.97
2023-04-27T19:36:37.203Z,7.30
2023-04-27T19:39:09.205Z,5.82
2023-04-27T19:41:42.238Z,5.22
2023-04-27T19:44:14.226Z,8.27
2023-04-27T19:46:47.074Z,6.60
2023-04-27T19:49:19.041Z,6.82
2023-04-27T19:51:51.561Z,7.65
2023-04-27T19:54:23.408Z,9.20
2023-04-27T19:56:56.831Z,7.17
2023-04-27T19:59:28.816Z,5.57
2023-04-27T20:02:01.699Z,8.57
2023-04-27T20:04:34.581Z,8.02
2023-04-27T20:07:07.973Z,6.15
2023-04-27T20:09:43.685Z,6.07
2023-04-27T20:12:40.226Z,5.97
2023-04-27T20:15:12.005Z,5.25
2023-04-27T20:17:46.557Z,7.15
2023-04-27T20:20:19.275Z,6.65
2023-04-27T20:22:52.397Z,5.57
2023-04-27T20:25:26.211Z,8.23
2023-04-27T20:27:58.464Z,5.50
2023-04-27T20:30:30.501Z,5.30
2023-04-27T20:33:04.193Z,5.70
2023-04-27T20:35:36.511Z,6.53
2023-04-27T20:38:08.614Z,6.03
2023-04-27T20:40:42.350Z,7.50
2023-04-27T20:43:14.651Z,6.43
2023-04-27T20:45:47.201Z,6.40
2023-04-27T20:48:19.286Z,5.53
2023-04-27T20:50:52.233Z,7.60
2023-04-27T20:53:25.882Z,5.18
2023-04-27T20:55:58.427Z,6.75
2023-04-27T20:58:30.373Z,6.65
2023-04-27T21:01:03.436Z,6.60
2023-04-27T21:03:35.743Z,7.28
2023-04-27T21:06:08.584Z,5.68
2023-04-27T21:08:40.522Z,6.28
2023-04-27T21:11:14.146Z,6.80
2023-04-27T21:13:46.948Z,8.37
2023-04-27T21:16:19.530Z,7.80
2023-04-27T21:18:51.452Z,8.57
2023-04-27T21:21:24.716Z,6.15
2023-04-27T21:24:06.572Z,7.60
2023-04-27T21:26:40.522Z,6.50
2023-04-27T21:29:12.403Z,5.35
2023-04-27T21:31:44.945Z,5.65
2023-04-27T21:34:17.300Z,6.38
2023-04-27T21:36:50.080Z,5.18
2023-04-27T21:39:22.053Z,4.60
2023-04-27T21:41:54.555Z,6.35
2023-04-27T21:44:26.481Z,5.07
2023-04-27T21:46:58.996Z,5.50
2023-04-27T21:49:30.869Z,5.95
2023-04-27T21:52:03.433Z,6.13
2023-04-27T21:54:35.513Z,6.30
2023-04-27T21:57:08.088Z,10.00
2023-04-27T21:59:40.510Z,5.88
2023-04-27T22:02:12.411Z,7.28
2023-04-27T22:04:45.644Z,6.37
2023-04-27T22:07:18.696Z,4.55
2023-04-27T22:09:51.304Z,5.32
2023-04-27T22:12:23.605Z,7.35
2023-04-27T22:14:56.259Z,5.80
2023-04-27T22:17:28.556Z,6.00
2023-04-27T22:20:01.566Z,6.07
2023-04-27T22:22:33.873Z,5.95
2023-04-27T22:25:08.217Z,6.85
2023-04-27T22:27:44.867Z,5.50
2023-04-27T22:30:17.912Z,6.77
2023-04-27T22:32:50.282Z,5.43
2023-04-27T22:35:27.077Z,8.10
2023-04-27T22:38:00.332Z,5.47
2023-04-27T22:40:32.853Z,5.72
2023-04-27T22:43:04.938Z,4.70
2023-04-27T22:45:38.812Z,5.68
2023-04-27T22:48:11.113Z,6.43
2023-04-27T22:50:43.690Z,5.35
2023-04-27T22:53:15.752Z,6.55
2023-04-27T22:55:48.863Z,6.17
2023-04-27T22:58:21.116Z,5.63
2023-04-27T23:00:53.829Z,4.93
2023-04-27T23:03:25.846Z,6.82
2023-04-27T23:06:01.063Z,5.30
2023-04-27T23:08:33.314Z,6.90
2023-04-27T23:11:05.883Z,6.35
2023-04-27T23:13:37.977Z,6.95
2023-04-27T23:16:10.558Z,5.43
2023-04-27T23:18:42.538Z,8.40
2023-04-27T23:21:15.049Z,6.27
2023-04-27T23:23:46.979Z,5.15
2023-04-27T23:26:19.566Z,5.13
2023-04-27T23:28:52.322Z,5.25
2023-04-27T23:31:24.346Z,5.28
2023-04-27T23:33:57.125Z,4.93
2023-04-27T23:36:29.418Z,5.43
2023-04-27T23:39:02.364Z,4.55
2023-04-27T23:41:34.764Z,5.45
2023-04-27T23:44:07.355Z,4.25
2023-04-27T23:46:39.639Z,4.93
2023-04-27T23:49:12.227Z,7.75
2023-04-27T23:51:44.573Z,4.55
2023-04-27T23:54:17.287Z,6.28
2023-04-27T23:56:52.476Z,4.72
2023-04-27T23:59:25.044Z,7.57
